createdAt,value
2017-08-08T00:00:35.521Z,11.40
2017-08-08T00:03:03.019Z,11.30
2017-08-08T00:05:30.492Z,9.43
2017-08-08T00:07:58.008Z,10.10
2017-08-08T00:10:26.232Z,10.73
2017-08-08T00:12:53.698Z,10.83
2017-08-08T00:15:21.172Z,10.83
2017-08-08T00:17:48.641Z,9.13
2017-08-08T00:20:16.120Z,11.10
2017-08-08T00:22:44.365Z,10.33
2017-08-08T00:25:11.824Z,9.43
2017-08-08T00:27:39.387Z,10.00
2017-08-08T00:30:06.951Z,8.83
2017-08-08T00:32:35.215Z,9.73
2017-08-08T00:35:02.779Z,9.20
2017-08-08T00:37:30.359Z,8.30
2017-08-08T00:39:58.616Z,8.20
2017-08-08T00:42:26.080Z,9.27
2017-08-08T00:44:54.318Z,8.97
2017-08-08T00:47:21.829Z,10.43
2017-08-08T00:49:49.382Z,9.87
2017-08-08T00:52:17.615Z,8.40
2017-08-08T00:54:45.086Z,9.37
2017-08-08T00:57:12.665Z,10.17
2017-08-08T00:59:40.928Z,9.33
2017-08-08T01:02:08.483Z,10.27
2017-08-08T01:04:35.949Z,9.13
2017-08-08T01:07:04.191Z,10.17
2017-08-08T01:09:31.652Z,9.67
2017-08-08T01:11:59.141Z,9.57
2017-08-08T01:14:27.377Z,8.60
2017-08-08T01:16:54.865Z,10.90
2017-08-08T01:19:22.433Z,8.70
2017-08-08T01:21:50.686Z,8.93
2017-08-08T01:24:18.174Z,9.23
2017-08-08T01:26:46.411Z,9.47
2017-08-08T01:29:13.983Z,10.17
2017-08-08T01:31:41.574Z,10.37
2017-08-08T01:34:09.122Z,9.70
2017-08-08T01:36:37.374Z,9.80
2017-08-08T01:39:04.860Z,9.47
2017-08-08T01:41:32.314Z,8.90
2017-08-08T01:43:59.782Z,9.37
2017-08-08T01:46:27.250Z,9.70
2017-08-08T01:48:54.715Z,9.93
2017-08-08T01:51:22.218Z,10.60
2017-08-08T01:53:49.777Z,9.50
2017-08-08T01:56:17.242Z,10.30
2017-08-08T01:58:45.575Z,11.33
2017-08-08T02:01:13.040Z,10.13
2017-08-08T02:03:40.502Z,9.27
2017-08-08T02:06:07.993Z,10.90
2017-08-08T02:08:36.255Z,10.60
2017-08-08T02:11:03.854Z,10.00
2017-08-08T02:13:31.428Z,10.80
2017-08-08T02:15:58.891Z,10.40
2017-08-08T02:18:26.360Z,10.10
2017-08-08T02:20:53.844Z,10.40
2017-08-08T02:23:21.306Z,10.00
2017-08-08T02:25:49.541Z,10.53
2017-08-08T02:28:17.043Z,11.83
2017-08-08T02:30:45.275Z,10.53
2017-08-08T02:33:12.737Z,9.67
2017-08-08T02:35:40.233Z,11.47
2017-08-08T02:38:08.512Z,10.50
2017-08-08T02:40:36.742Z,10.23
2017-08-08T02:43:04.218Z,11.93
2017-08-08T02:45:31.687Z,11.00
2017-08-08T02:47:59.254Z,10.70
2017-08-08T02:50:27.518Z,10.50
2017-08-08T02:52:54.975Z,9.53
2017-08-08T02:55:22.430Z,9.17
2017-08-08T02:57:49.904Z,9.40
2017-08-08T03:00:18.176Z,10.93
2017-08-08T03:02:46.402Z,9.80
2017-08-08T03:05:13.959Z,9.60
2017-08-08T03:07:41.456Z,9.83
2017-08-08T03:10:09.014Z,10.80
2017-08-08T03:12:36.485Z,11.10
2017-08-08T03:15:04.720Z,8.60
2017-08-08T03:17:32.235Z,8.70
2017-08-08T03:19:59.767Z,9.63
2017-08-08T03:22:28.023Z,9.60
2017-08-08T03:24:55.497Z,9.30
2017-08-08T03:27:23.004Z,8.33
2017-08-08T03:29:50.462Z,9.33
2017-08-08T03:32:17.974Z,10.20
2017-08-08T03:34:46.243Z,10.23
2017-08-08T03:37:13.710Z,10.77
2017-08-08T03:39:41.956Z,9.20
2017-08-08T03:42:09.436Z,12.13
2017-08-08T03:44:37.672Z,9.37
2017-08-08T03:47:05.148Z,10.33
2017-08-08T03:49:32.728Z,10.10
2017-08-08T03:52:00.971Z,10.57
2017-08-08T03:54:28.468Z,11.17
2017-08-08T03:56:56.752Z,10.27
2017-08-08T03:59:24.202Z,12.60
2017-08-08T04:01:52.474Z,12.00
2017-08-08T04:04:20.715Z,11.17
2017-08-08T04:06:48.176Z,11.80
2017-08-08T04:09:15.759Z,10.80
2017-08-08T04:11:44.000Z,10.53
2017-08-08T04:14:12.280Z,11.60
2017-08-08T04:16:39.747Z,13.07
2017-08-08T04:19:07.223Z,10.23
2017-08-08T04:21:35.490Z,12.47
2017-08-08T04:24:03.005Z,12.60
2017-08-08T04:26:30.471Z,12.10
2017-08-08T04:28:58.017Z,12.03
2017-08-08T04:31:25.523Z,11.03
2017-08-08T04:33:52.984Z,11.97
2017-08-08T04:36:21.259Z,11.23
2017-08-08T04:38:49.513Z,10.83
2017-08-08T04:41:17.043Z,12.40
2017-08-08T04:43:44.576Z,13.00
2017-08-08T04:46:12.050Z,11.53
2017-08-08T04:48:39.524Z,10.20
2017-08-08T04:51:07.031Z,11.47
2017-08-08T04:53:35.300Z,11.93
2017-08-08T04:56:03.575Z,11.30
2017-08-08T04:58:31.854Z,12.40
2017-08-08T05:01:00.099Z,12.70
2017-08-08T05:03:27.559Z,13.70
2017-08-08T05:05:55.158Z,12.07
2017-08-08T05:08:23.400Z,12.23
2017-08-08T05:10:50.881Z,12.43
2017-08-08T05:13:19.108Z,13.30
2017-08-08T05:15:46.599Z,11.70
2017-08-08T05:18:14.090Z,13.50
2017-08-08T05:20:41.572Z,12.30
2017-08-08T05:23:09.042Z,11.17
2017-08-08T05:25:36.537Z,12.50
2017-08-08T05:28:04.819Z,12.40
2017-08-08T05:30:33.062Z,12.30
2017-08-08T05:33:00.527Z,12.50
2017-08-08T05:35:27.984Z,11.90
2017-08-08T05:37:55.646Z,12.00
2017-08-08T05:40:23.112Z,10.70
2017-08-08T05:42:51.345Z,11.63
2017-08-08T05:45:18.839Z,12.30
2017-08-08T05:47:46.299Z,11.50
2017-08-08T05:50:13.773Z,11.30
2017-08-08T05:52:41.329Z,10.53
2017-08-08T05:55:09.559Z,11.43
2017-08-08T05:57:37.025Z,10.53
2017-08-08T06:00:04.521Z,9.63
2017-08-08T06:02:32.776Z,11.23
2017-08-08T06:05:01.067Z,9.50
2017-08-08T06:07:29.328Z,11.00
2017-08-08T06:09:57.579Z,11.63
2017-08-08T06:12:25.066Z,10.43
2017-08-08T06:14:53.335Z,10.50
2017-08-08T06:17:20.900Z,10.00
2017-08-08T06:19:48.368Z,10.93
2017-08-08T06:22:16.624Z,9.70
2017-08-08T06:24:44.898Z,12.70
2017-08-08T06:27:12.360Z,11.17
2017-08-08T06:29:40.628Z,10.70
2017-08-08T06:32:08.193Z,11.60
2017-08-08T06:37:09.484Z,11.47
2017-08-08T06:39:37.016Z,11.10
2017-08-08T06:42:05.300Z,12.00
2017-08-08T06:44:33.540Z,12.40
2017-08-08T06:47:01.042Z,12.03
2017-08-08T06:49:29.262Z,10.80
2017-08-08T06:51:56.738Z,11.87
2017-08-08T06:54:24.216Z,11.60
2017-08-08T06:56:52.444Z,12.00
2017-08-08T06:59:19.920Z,12.10
2017-08-08T07:01:47.394Z,10.93
2017-08-08T07:04:14.860Z,11.50
2017-08-08T07:06:43.126Z,11.87
2017-08-08T07:09:10.696Z,11.60
2017-08-08T07:11:38.959Z,11.77
2017-08-08T07:14:06.455Z,12.60
2017-08-08T07:16:33.928Z,12.90
2017-08-08T07:19:01.439Z,12.10
2017-08-08T07:21:28.939Z,11.40
2017-08-08T07:23:56.436Z,12.40
2017-08-08T07:26:24.035Z,12.27
2017-08-08T07:28:51.498Z,13.97
2017-08-08T07:31:18.968Z,12.63
2017-08-08T07:33:46.435Z,11.90
2017-08-08T07:36:13.890Z,12.20
2017-08-08T07:38:41.362Z,13.23
2017-08-08T07:41:08.838Z,12.30
2017-08-08T07:43:36.320Z,12.20
2017-08-08T07:46:04.716Z,12.00
2017-08-08T07:48:32.207Z,11.70
2017-08-08T07:50:59.687Z,11.77
2017-08-08T07:53:27.264Z,11.63
2017-08-08T07:55:55.507Z,12.97
2017-08-08T07:58:22.981Z,12.60
2017-08-08T08:00:50.450Z,10.80
2017-08-08T08:03:18.695Z,12.97
2017-08-08T08:05:46.179Z,12.50
2017-08-08T08:08:14.419Z,11.40
2017-08-08T08:10:41.895Z,11.30
2017-08-08T08:13:09.361Z,10.87
2017-08-08T08:15:36.835Z,12.27
2017-08-08T08:18:05.075Z,11.63
2017-08-08T08:20:32.536Z,12.20
2017-08-08T08:23:00.020Z,12.67
2017-08-08T08:25:28.373Z,11.70
2017-08-08T08:27:56.658Z,11.60
2017-08-08T08:30:24.992Z,11.23
2017-08-08T08:32:52.531Z,10.60
2017-08-08T08:35:20.422Z,12.13
2017-08-08T08:37:47.939Z,12.50
2017-08-08T08:40:16.295Z,12.10
2017-08-08T08:42:43.856Z,10.63
2017-08-08T08:45:11.431Z,11.57
2017-08-08T08:47:39.701Z,11.87
2017-08-08T08:50:07.211Z,11.73
2017-08-08T08:52:34.668Z,12.10
2017-08-08T08:55:02.138Z,12.00
2017-08-08T08:57:29.615Z,11.90
2017-08-08T08:59:57.230Z,12.03
2017-08-08T09:02:24.719Z,12.73
2017-08-08T09:04:52.197Z,11.53
2017-08-08T09:07:19.662Z,13.40
2017-08-08T09:09:47.941Z,12.00
2017-08-08T09:12:16.192Z,12.83
2017-08-08T09:14:43.795Z,12.93
2017-08-08T09:17:11.565Z,11.83
2017-08-08T09:19:39.083Z,13.17
2017-08-08T09:22:06.642Z,13.77
2017-08-08T09:24:34.199Z,14.60
2017-08-08T09:27:01.761Z,13.53
2017-08-08T09:29:30.008Z,12.17
2017-08-08T09:31:57.542Z,13.40
2017-08-08T09:34:25.010Z,13.17
2017-08-08T09:36:52.489Z,13.00
2017-08-08T09:39:19.952Z,13.30
2017-08-08T09:41:47.411Z,14.57
2017-08-08T09:44:14.880Z,14.03
2017-08-08T09:46:43.133Z,12.70
2017-08-08T09:49:10.601Z,12.90
2017-08-08T09:51:38.173Z,13.30
2017-08-08T09:54:05.720Z,13.20
2017-08-08T09:56:33.188Z,13.70
2017-08-08T09:59:01.429Z,12.80
2017-08-08T10:01:28.909Z,12.90
2017-08-08T10:03:56.365Z,11.83
2017-08-08T10:06:23.836Z,12.40
2017-08-08T10:08:52.095Z,13.27
2017-08-08T10:11:19.657Z,14.07
2017-08-08T10:13:47.211Z,14.47
2017-08-08T10:16:14.675Z,13.43
2017-08-08T10:18:42.245Z,14.57
2017-08-08T10:21:10.520Z,14.77
2017-08-08T10:23:38.781Z,14.70
2017-08-08T10:26:06.271Z,14.07
2017-08-08T10:28:33.743Z,15.17
2017-08-08T10:31:01.210Z,15.03
2017-08-08T10:33:28.680Z,16.20
2017-08-08T10:35:56.200Z,15.57
2017-08-08T10:38:23.678Z,14.67
2017-08-08T10:40:51.186Z,16.07
2017-08-08T10:43:18.656Z,14.60
2017-08-08T10:45:46.916Z,14.93
2017-08-08T10:48:14.379Z,14.63
2017-08-08T10:50:42.647Z,15.97
2017-08-08T10:53:10.204Z,14.30
2017-08-08T10:55:37.671Z,14.93
2017-08-08T10:58:05.916Z,14.00
2017-08-08T11:00:33.700Z,14.80
2017-08-08T11:03:01.951Z,14.63
2017-08-08T11:05:29.418Z,13.27
2017-08-08T11:07:57.915Z,14.07
2017-08-08T11:10:25.452Z,14.43
2017-08-08T11:12:52.928Z,13.10
2017-08-08T11:15:20.396Z,15.10
2017-08-08T11:17:48.623Z,14.33
2017-08-08T11:20:16.121Z,12.87
2017-08-08T11:22:44.389Z,14.60
2017-08-08T11:25:11.947Z,12.70
2017-08-08T11:27:39.507Z,12.40
2017-08-08T11:30:06.971Z,14.70
2017-08-08T11:32:34.433Z,15.80
2017-08-08T11:35:02.695Z,16.27
2017-08-08T11:37:30.259Z,17.47
2017-08-08T11:39:57.712Z,15.37
2017-08-08T11:42:25.224Z,15.40
2017-08-08T11:44:52.723Z,15.90
2017-08-08T11:47:20.206Z,17.07
2017-08-08T11:49:48.453Z,16.17
2017-08-08T11:52:15.974Z,15.20
2017-08-08T11:54:43.483Z,16.40
2017-08-08T11:57:11.735Z,15.77
2017-08-08T11:59:39.205Z,16.00
2017-08-08T12:02:06.662Z,15.57
2017-08-08T12:04:34.152Z,15.97
2017-08-08T12:07:01.615Z,17.47
2017-08-08T12:09:29.071Z,16.63
2017-08-08T12:11:56.552Z,17.17
2017-08-08T12:14:24.007Z,15.73
2017-08-08T12:16:51.651Z,17.37
2017-08-08T12:19:19.175Z,17.97
2017-08-08T12:21:46.678Z,17.43
2017-08-08T12:24:14.179Z,18.67
2017-08-08T12:26:41.656Z,19.33
2017-08-08T12:29:09.903Z,20.37
2017-08-08T12:31:37.368Z,18.93
2017-08-08T12:34:04.847Z,21.43
2017-08-08T12:36:33.086Z,20.87
2017-08-08T12:39:00.560Z,20.97
2017-08-08T12:41:28.025Z,21.80
2017-08-08T12:43:55.488Z,21.87
2017-08-08T12:46:22.947Z,22.13
2017-08-08T12:48:51.196Z,22.47
2017-08-08T12:51:18.713Z,21.73
2017-08-08T12:53:46.177Z,22.80
2017-08-08T12:56:13.652Z,21.70
2017-08-08T12:58:41.113Z,25.00
2017-08-08T13:01:08.585Z,24.60
2017-08-08T13:03:36.051Z,22.67
2017-08-08T13:06:04.284Z,23.77
2017-08-08T13:08:31.796Z,23.77
2017-08-08T13:10:59.267Z,22.60
2017-08-08T13:13:26.741Z,23.07
2017-08-08T13:15:54.203Z,22.80
2017-08-08T13:18:21.707Z,22.17
2017-08-08T13:20:49.936Z,24.57
2017-08-08T13:23:17.420Z,24.27
2017-08-08T13:25:44.927Z,27.07
2017-08-08T13:28:12.385Z,22.10
2017-08-08T13:30:39.852Z,24.23
2017-08-08T13:33:07.336Z,23.93
2017-08-08T13:35:34.853Z,22.13
2017-08-08T13:38:02.331Z,21.10
2017-08-08T13:40:29.822Z,23.10
2017-08-08T13:42:57.305Z,24.10
2017-08-08T13:45:25.740Z,21.50
2017-08-08T13:47:53.218Z,22.13
2017-08-08T13:50:20.696Z,23.97
2017-08-08T13:52:48.941Z,22.13
2017-08-08T13:55:16.401Z,22.33
2017-08-08T13:57:43.856Z,21.23
2017-08-08T14:00:11.329Z,21.27
2017-08-08T14:02:38.797Z,20.40
2017-08-08T14:05:06.255Z,20.53
2017-08-08T14:07:33.730Z,21.00
2017-08-08T14:10:01.207Z,19.33
2017-08-08T14:12:28.710Z,19.63
2017-08-08T14:14:56.176Z,21.43
2017-08-08T14:17:24.403Z,22.40
2017-08-08T14:19:51.864Z,19.63
2017-08-08T14:22:19.631Z,19.40
2017-08-08T14:24:47.103Z,20.47
2017-08-08T14:27:14.592Z,22.23
2017-08-08T14:29:42.076Z,20.17
2017-08-08T14:32:09.555Z,21.67
2017-08-08T14:34:37.029Z,21.33
2017-08-08T14:37:04.544Z,18.33
2017-08-08T14:39:32.374Z,7.93
2017-08-08T14:41:59.831Z,6.43
2017-08-08T14:44:27.288Z,6.90
2017-08-08T14:46:54.767Z,8.07
2017-08-08T14:49:22.261Z,7.13
2017-08-08T14:51:49.723Z,7.77
2017-08-08T14:54:17.175Z,7.50
2017-08-08T14:56:44.665Z,8.67
2017-08-08T14:59:12.141Z,9.83
2017-08-08T15:01:40.360Z,9.17
2017-08-08T15:04:07.835Z,10.57
2017-08-08T15:06:35.296Z,9.53
2017-08-08T15:09:02.763Z,10.77
2017-08-08T15:11:30.247Z,11.17
2017-08-08T15:13:57.697Z,9.10
2017-08-08T15:16:25.928Z,9.87
2017-08-08T15:18:53.418Z,8.87
2017-08-08T15:21:20.876Z,8.90
2017-08-08T15:23:49.101Z,8.10
2017-08-08T15:26:16.603Z,8.90
2017-08-08T15:28:44.076Z,9.50
2017-08-08T15:31:11.541Z,9.73
2017-08-08T15:33:39.029Z,7.50
2017-08-08T15:36:06.558Z,6.10
2017-08-08T15:38:34.014Z,6.13
2017-08-08T15:41:01.498Z,4.43
2017-08-08T15:43:28.977Z,3.50
2017-08-08T15:45:56.452Z,3.80
2017-08-08T15:48:23.921Z,4.70
2017-08-08T15:50:51.372Z,4.47
2017-08-08T15:53:18.884Z,4.00
2017-08-08T15:55:46.340Z,5.00
2017-08-08T15:58:13.799Z,4.23
2017-08-08T16:00:41.310Z,4.20
2017-08-08T16:03:09.558Z,3.97
2017-08-08T16:05:37.007Z,4.03
2017-08-08T16:08:04.504Z,4.67
2017-08-08T16:10:31.959Z,4.73
2017-08-08T16:13:00.185Z,4.97
2017-08-08T16:15:27.711Z,4.33
2017-08-08T16:17:55.164Z,4.07
2017-08-08T16:20:22.624Z,4.53
2017-08-08T16:22:50.096Z,4.60
2017-08-08T16:25:17.563Z,4.10
2017-08-08T16:27:45.019Z,5.80
2017-08-08T16:30:12.823Z,5.20
2017-08-08T16:32:40.280Z,5.23
2017-08-08T16:35:07.731Z,5.87
2017-08-08T16:37:35.455Z,4.80
2017-08-08T16:40:02.912Z,6.10
2017-08-08T16:42:30.370Z,5.23
2017-08-08T16:44:58.669Z,5.00
2017-08-08T16:47:26.119Z,5.57
2017-08-08T16:49:53.579Z,5.70
2017-08-08T16:52:21.046Z,5.50
2017-08-08T16:54:48.540Z,5.30
2017-08-08T16:57:16.009Z,4.93
2017-08-08T16:59:43.467Z,5.77
2017-08-08T17:02:10.943Z,4.33
2017-08-08T17:04:38.399Z,4.30
2017-08-08T17:07:05.868Z,3.80
2017-08-08T17:09:33.323Z,3.93
2017-08-08T17:12:00.792Z,4.77
2017-08-08T17:14:28.351Z,3.77
2017-08-08T17:16:55.847Z,4.37
2017-08-08T17:19:23.314Z,3.83
2017-08-08T17:21:50.859Z,4.80
2017-08-08T17:24:19.140Z,3.50
2017-08-08T17:26:46.658Z,3.60
2017-08-08T17:29:14.172Z,3.93
2017-08-08T17:31:41.688Z,3.93
2017-08-08T17:34:09.441Z,4.10
2017-08-08T17:36:36.903Z,3.60
2017-08-08T17:39:04.491Z,3.50
2017-08-08T17:41:32.847Z,4.40
2017-08-08T17:44:00.412Z,3.60
2017-08-08T17:46:27.864Z,3.80
2017-08-08T17:48:56.097Z,4.27
2017-08-08T17:51:23.557Z,3.37
2017-08-08T17:53:51.064Z,4.03
2017-08-08T17:56:19.379Z,3.83
2017-08-08T17:58:46.879Z,3.23
2017-08-08T18:01:14.372Z,3.70
2017-08-08T18:03:41.852Z,3.03
2017-08-08T18:06:09.315Z,3.00
2017-08-08T18:08:36.789Z,3.10
2017-08-08T18:11:04.247Z,3.27
2017-08-08T18:13:31.723Z,3.30
2017-08-08T18:15:59.191Z,3.17
2017-08-08T18:18:27.435Z,3.13
2017-08-08T18:20:54.941Z,3.47
2017-08-08T18:23:22.405Z,4.20
2017-08-08T18:25:49.881Z,3.73
2017-08-08T18:28:17.376Z,3.60
2017-08-08T18:30:44.835Z,4.70
2017-08-08T18:33:12.316Z,3.90
2017-08-08T18:35:40.580Z,4.20
2017-08-08T18:38:08.134Z,5.87
2017-08-08T18:40:35.611Z,5.40
2017-08-08T18:43:03.840Z,6.30
2017-08-08T18:45:31.311Z,6.70
2017-08-08T18:47:58.784Z,7.57
2017-08-08T18:50:26.239Z,7.50
2017-08-08T18:52:54.477Z,6.10
2017-08-08T18:55:21.965Z,7.50
2017-08-08T18:57:49.427Z,7.93
2017-08-08T19:00:17.707Z,7.40
2017-08-08T19:02:46.287Z,8.37
2017-08-08T19:05:14.524Z,7.57
2017-08-08T19:07:42.015Z,7.60
2017-08-08T19:10:10.251Z,8.50
2017-08-08T19:12:37.747Z,7.77
2017-08-08T19:15:05.234Z,8.90
2017-08-08T19:17:32.969Z,11.07
2017-08-08T19:20:00.520Z,9.70
2017-08-08T19:22:28.007Z,8.93
2017-08-08T19:24:55.746Z,7.77
2017-08-08T19:27:23.241Z,8.40
2017-08-08T19:29:50.737Z,8.37
2017-08-08T19:32:18.230Z,8.50
2017-08-08T19:34:46.470Z,8.27
2017-08-08T19:37:14.209Z,8.43
2017-08-08T19:39:41.676Z,9.07
2017-08-08T19:42:09.176Z,9.93
2017-08-08T19:44:37.430Z,8.60
2017-08-08T19:47:04.957Z,8.90
2017-08-08T19:49:32.428Z,9.17
2017-08-08T19:51:59.910Z,9.50
2017-08-08T19:54:27.424Z,10.30
2017-08-08T19:56:54.887Z,8.77
2017-08-08T19:59:22.383Z,9.00
2017-08-08T20:01:49.841Z,8.93
2017-08-08T20:04:17.311Z,8.83
2017-08-08T20:06:45.693Z,10.20
2017-08-08T20:09:13.179Z,10.00
2017-08-08T20:11:40.639Z,9.20
2017-08-08T20:14:08.128Z,9.13
2017-08-08T20:16:35.596Z,8.87
2017-08-08T20:19:03.123Z,9.00
2017-08-08T20:21:30.633Z,10.97
2017-08-08T20:23:58.872Z,9.23
2017-08-08T20:26:26.460Z,9.37
2017-08-08T20:28:54.739Z,10.33
2017-08-08T20:31:22.975Z,11.67
2017-08-08T20:33:50.517Z,12.00
2017-08-08T20:36:18.217Z,11.37
2017-08-08T20:38:45.674Z,14.13
2017-08-08T20:41:13.143Z,15.60
2017-08-08T20:43:41.708Z,18.50
2017-08-08T20:46:09.216Z,19.33
2017-08-08T20:48:36.704Z,21.17
2017-08-08T20:51:04.412Z,23.43
2017-08-08T20:53:31.900Z,20.17
2017-08-08T20:55:59.416Z,22.70
2017-08-08T20:58:27.695Z,21.30
2017-08-08T21:00:55.188Z,22.83
2017-08-08T21:03:22.684Z,29.37
2017-08-08T21:05:50.139Z,27.40
2017-08-08T21:08:17.620Z,29.50
2017-08-08T21:10:45.092Z,26.73
2017-08-08T21:13:13.341Z,29.23
2017-08-08T21:15:40.846Z,30.90
2017-08-08T21:18:08.332Z,27.37
2017-08-08T21:20:35.812Z,31.47
2017-08-08T21:23:03.291Z,32.33
2017-08-08T21:25:30.762Z,28.90
2017-08-08T21:27:58.235Z,28.30
2017-08-08T21:30:25.748Z,27.93
2017-08-08T21:32:53.519Z,32.80
2017-08-08T21:35:21.755Z,27.07
2017-08-08T21:37:49.229Z,32.80
2017-08-08T21:40:16.805Z,31.63
2017-08-08T21:42:44.268Z,31.10
2017-08-08T21:45:12.508Z,28.83
2017-08-08T21:47:39.994Z,28.87
2017-08-08T21:50:07.476Z,30.47
2017-08-08T21:52:34.940Z,29.00
2017-08-08T21:55:02.420Z,27.83
2017-08-08T21:57:29.880Z,27.07
2017-08-08T21:59:57.424Z,24.20
2017-08-08T22:02:24.930Z,23.87
2017-08-08T22:04:52.495Z,21.80
2017-08-08T22:07:19.960Z,24.63
2017-08-08T22:09:48.211Z,19.50
2017-08-08T22:12:15.700Z,17.13
2017-08-08T22:14:43.954Z,19.70
2017-08-08T22:17:11.507Z,18.30
2017-08-08T22:19:39.083Z,17.37
2017-08-08T22:22:07.316Z,18.60
2017-08-08T22:24:34.819Z,18.60
2017-08-08T22:27:03.064Z,18.87
2017-08-08T22:29:30.547Z,19.77
2017-08-08T22:31:58.816Z,18.70
2017-08-08T22:34:26.271Z,18.70
2017-08-08T22:36:54.521Z,19.57
2017-08-08T22:39:22.102Z,17.80
2017-08-08T22:41:49.569Z,19.13
2017-08-08T22:44:17.804Z,16.03
2017-08-08T22:46:45.283Z,16.43
2017-08-08T22:49:12.747Z,16.10
2017-08-08T22:51:40.216Z,16.70
2017-08-08T22:54:08.701Z,16.87
2017-08-08T22:56:36.957Z,14.20
2017-08-08T22:59:04.488Z,19.10
2017-08-08T23:01:31.972Z,19.23
2017-08-08T23:03:59.435Z,19.47
2017-08-08T23:06:26.992Z,18.10
2017-08-08T23:08:55.248Z,19.63
2017-08-08T23:11:22.730Z,18.80
2017-08-08T23:13:50.980Z,20.30
2017-08-08T23:16:18.446Z,18.63
2017-08-08T23:18:45.967Z,21.40
2017-08-08T23:21:13.521Z,20.20
2017-08-08T23:26:14.838Z,19.90
2017-08-08T23:28:42.311Z,17.93
2017-08-08T23:31:10.543Z,20.10
2017-08-08T23:33:38.008Z,19.87
2017-08-08T23:36:05.487Z,20.00
2017-08-08T23:38:33.734Z,21.67
2017-08-08T23:41:01.194Z,20.30
2017-08-08T23:43:28.766Z,21.13
2017-08-08T23:45:56.236Z,19.20
2017-08-08T23:48:24.499Z,20.50
2017-08-08T23:50:52.064Z,22.70
2017-08-08T23:53:20.386Z,19.83
2017-08-08T23:55:47.878Z,19.77
2017-08-08T23:58:15.356Z,19.97
